Time;durP1;ratioP1;P1;durP2;ratioP2;P2;SDS_P1;SDS_P2;PMS_P1;PMS_P2;Temp;Humidity;BMP_temperature;BMP_pressure;BME280_temperature;BME280_humidity;BME280_pressure;Samples;Min_cycle;Max_cycle;Signal;HPM_P1;HPM_P2
2021/08/14 00:01:05;;;;;;;3.15;3.00;;;22.00;76.90;;;;;;4958921;28;20267;-73
2021/08/14 00:03:31;;;;;;;3.42;3.22;;;22.00;77.00;;;;;;4958857;28;20593;-72
2021/08/14 00:05:57;;;;;;;3.67;3.47;;;22.00;77.20;;;;;;4958758;28;20206;-72
2021/08/14 00:08:23;;;;;;;3.30;3.10;;;22.00;78.10;;;;;;4960899;28;20178;-74
2021/08/14 00:10:48;;;;;;;3.67;3.47;;;21.90;77.60;;;;;;4961171;28;20253;-74
2021/08/14 00:13:14;;;;;;;3.15;2.95;;;21.90;77.90;;;;;;4958995;28;20187;-74
2021/08/14 00:15:40;;;;;;;3.20;3.10;;;21.90;77.70;;;;;;4956440;28;20298;-74
2021/08/14 00:18:05;;;;;;;3.28;3.17;;;21.80;78.30;;;;;;4959721;28;20214;-73
2021/08/14 00:20:31;;;;;;;3.75;3.25;;;21.80;79.40;;;;;;4957500;28;20229;-73
2021/08/14 00:22:59;;;;;;;3.72;3.40;;;21.80;78.40;;;;;;4957559;28;20197;-73
2021/08/14 00:25:28;;;;;;;7.05;3.78;;;21.70;79.20;;;;;;4956352;28;20186;-73
2021/08/14 00:27:54;;;;;;;3.25;3.15;;;21.70;78.30;;;;;;4956293;28;20222;-73
2021/08/14 00:30:20;;;;;;;3.60;3.25;;;21.70;78.10;;;;;;4957096;28;20199;-73
2021/08/14 00:32:46;;;;;;;4.03;3.65;;;21.70;78.50;;;;;;4958240;28;20183;-74
2021/08/14 00:35:11;;;;;;;4.00;3.80;;;21.60;78.40;;;;;;4955218;28;20219;-73
2021/08/14 00:37:38;;;;;;;3.55;3.30;;;21.60;78.90;;;;;;4957194;28;20219;-73
2021/08/14 00:40:05;;;;;;;3.03;2.92;;;21.60;78.70;;;;;;4957872;28;20696;-73
2021/08/14 00:42:31;;;;;;;3.50;3.30;;;21.50;78.60;;;;;;4957768;28;21926;-74
2021/08/14 00:45:00;;;;;;;3.15;3.03;;;21.50;78.70;;;;;;4957260;28;20193;-73
2021/08/14 00:47:26;;;;;;;3.08;2.97;;;21.40;80.30;;;;;;4955797;28;20270;-73
2021/08/14 00:49:52;;;;;;;3.85;3.47;;;21.40;80.00;;;;;;4959174;28;20270;-72
2021/08/14 00:52:19;;;;;;;3.35;3.22;;;21.30;79.80;;;;;;4959334;28;20174;-72
2021/08/14 00:54:44;;;;;;;4.00;3.70;;;21.30;79.40;;;;;;4961711;28;20269;-72
2021/08/14 00:57:10;;;;;;;3.25;3.15;;;21.30;80.70;;;;;;4955061;28;20293;-72
2021/08/14 00:59:36;;;;;;;3.47;2.58;;;21.30;80.30;;;;;;4959169;28;20193;-73
2021/08/14 01:02:04;;;;;;;3.13;3.03;;;21.30;80.60;;;;;;4957033;28;20191;-73
2021/08/14 01:04:30;;;;;;;3.17;2.97;;;21.20;80.60;;;;;;4958570;28;20179;-73
2021/08/14 01:06:56;;;;;;;3.33;3.22;;;21.20;80.60;;;;;;4959007;28;20248;-72
2021/08/14 01:09:22;;;;;;;3.63;3.42;;;21.20;80.80;;;;;;4956486;28;20189;-73
2021/08/14 01:11:49;;;;;;;2.45;2.45;;;21.20;81.40;;;;;;4957622;28;20680;-73
2021/08/14 01:14:15;;;;;;;5.35;3.10;;;21.10;80.00;;;;;;4957277;28;20186;-73
2021/08/14 01:16:42;;;;;;;2.88;2.78;;;21.10;81.00;;;;;;4955677;28;20197;-75
2021/08/14 01:19:08;;;;;;;3.60;3.40;;;21.10;80.20;;;;;;4956040;28;20202;-74
2021/08/14 01:21:34;;;;;;;3.17;3.05;;;21.10;80.60;;;;;;4960910;28;20198;-74
2021/08/14 01:24:02;;;;;;;3.28;3.08;;;21.10;80.40;;;;;;4971361;28;20190;-74
2021/08/14 01:26:30;;;;;;;3.05;2.85;;;21.10;80.40;;;;;;4961740;28;20183;-75
2021/08/14 01:28:56;;;;;;;2.63;2.53;;;21.10;80.90;;;;;;4960530;28;20214;-75
2021/08/14 01:31:22;;;;;;;2.90;2.70;;;21.00;81.10;;;;;;4955866;28;20244;-74
2021/08/14 01:33:48;;;;;;;4.10;2.95;;;21.00;81.40;;;;;;4958175;28;20706;-74
2021/08/14 01:36:16;;;;;;;3.45;3.33;;;21.00;80.70;;;;;;4957489;28;20637;-73
2021/08/14 01:38:51;;;;;;;3.50;3.00;;;21.00;81.20;;;;;;4955243;28;20218;-74
2021/08/14 01:41:17;;;;;;;3.25;3.15;;;20.90;82.10;;;;;;4955908;28;20189;-73
2021/08/14 01:43:55;;;;;;;2.65;2.45;;;20.90;81.70;;;;;;4955769;28;20598;-72
2021/08/14 01:46:22;;;;;;;4.43;2.53;;;20.90;81.70;;;;;;4957882;28;20321;-72
2021/08/14 01:48:47;;;;;;;3.15;2.95;;;20.90;81.80;;;;;;4959537;28;20193;-73
2021/08/14 01:51:13;;;;;;;2.58;2.47;;;20.90;83.00;;;;;;4958944;28;20186;-73
2021/08/14 01:53:48;;;;;;;6.65;2.78;;;20.80;82.20;;;;;;4966088;28;20665;-73
2021/08/14 01:56:16;;;;;;;3.42;3.13;;;20.80;81.10;;;;;;4959034;28;20191;-74
2021/08/14 01:58:42;;;;;;;3.40;2.40;;;20.80;81.50;;;;;;4964081;28;20618;-73
2021/08/14 02:01:08;;;;;;;2.92;2.55;;;20.80;82.10;;;;;;4957687;28;20179;-74
2021/08/14 02:03:35;;;;;;;2.47;1.92;;;20.70;81.70;;;;;;4961082;28;20809;-73
2021/08/14 02:06:02;;;;;;;2.30;2.20;;;20.70;82.30;;;;;;4959184;28;20249;-72
2021/08/14 02:08:28;;;;;;;2.78;2.67;;;20.70;81.70;;;;;;4960753;28;20187;-73
2021/08/14 02:10:54;;;;;;;3.10;2.90;;;20.70;81.70;;;;;;4961157;28;20178;-73
2021/08/14 02:13:20;;;;;;;2.17;2.13;;;20.70;81.70;;;;;;4960364;28;20550;-73
2021/08/14 02:15:45;;;;;;;2.85;2.33;;;20.70;82.00;;;;;;4957396;28;20201;-73
2021/08/14 02:18:11;;;;;;;3.70;2.42;;;20.70;81.90;;;;;;4962123;28;20210;-72
2021/08/14 02:20:37;;;;;;;2.47;2.28;;;20.70;81.90;;;;;;4961564;28;20198;-73
2021/08/14 02:23:02;;;;;;;2.38;2.28;;;20.70;82.70;;;;;;4958232;28;20208;-73
2021/08/14 02:25:28;;;;;;;2.42;2.33;;;20.60;82.40;;;;;;4959021;28;20186;-72
2021/08/14 02:27:54;;;;;;;2.25;2.15;;;20.60;82.60;;;;;;4964041;28;20190;-73
2021/08/14 02:30:19;;;;;;;2.88;2.67;;;20.60;82.40;;;;;;4959363;28;20734;-73
2021/08/14 02:32:47;;;;;;;2.50;2.40;;;20.50;82.70;;;;;;4963228;28;20187;-73
2021/08/14 02:35:13;;;;;;;2.45;2.28;;;20.50;83.30;;;;;;4961921;28;20183;-73
2021/08/14 02:37:39;;;;;;;2.38;2.28;;;20.50;83.00;;;;;;4958514;28;20778;-73
2021/08/14 02:40:06;;;;;;;2.10;2.08;;;20.50;82.80;;;;;;4961620;28;20178;-74
2021/08/14 02:42:32;;;;;;;2.55;2.45;;;20.50;82.60;;;;;;4957325;28;20183;-73
2021/08/14 02:44:58;;;;;;;2.22;2.13;;;20.50;82.60;;;;;;4961110;28;20187;-72
2021/08/14 02:47:24;;;;;;;2.85;2.60;;;20.50;82.40;;;;;;4961227;28;20203;-72
2021/08/14 02:49:49;;;;;;;2.80;2.70;;;20.50;82.60;;;;;;4959622;28;20189;-72
2021/08/14 02:52:15;;;;;;;2.40;2.30;;;20.40;82.50;;;;;;4959787;28;21010;-73
2021/08/14 02:54:41;;;;;;;3.00;2.30;;;20.40;82.50;;;;;;4959448;28;20190;-71
2021/08/14 02:57:06;;;;;;;2.97;2.75;;;20.40;83.70;;;;;;4959642;28;20269;-72
2021/08/14 02:59:32;;;;;;;2.33;2.22;;;20.40;83.00;;;;;;4959295;28;20202;-73
2021/08/14 03:01:58;;;;;;;2.97;2.72;;;20.40;83.40;;;;;;4961174;28;20186;-73
2021/08/14 03:04:23;;;;;;;2.50;2.40;;;20.40;83.90;;;;;;4961385;28;20593;-73
2021/08/14 03:06:56;;;;;;;2.50;2.40;;;20.30;83.30;;;;;;4959095;28;20187;-74
2021/08/14 03:09:22;;;;;;;3.10;2.17;;;20.40;83.40;;;;;;4960256;28;20759;-72
2021/08/14 03:11:47;;;;;;;2.60;2.50;;;20.30;83.60;;;;;;4960286;28;20248;-75
2021/08/14 03:14:13;;;;;;;2.55;2.45;;;20.30;83.80;;;;;;4961192;28;20560;-75
2021/08/14 03:16:39;;;;;;;3.13;3.03;;;20.30;84.00;;;;;;4962942;28;20198;-74
2021/08/14 03:19:04;;;;;;;2.50;2.40;;;20.30;83.70;;;;;;4958997;28;20313;-74
2021/08/14 03:21:30;;;;;;;2.90;2.25;;;20.20;83.70;;;;;;4957786;28;20645;-74
2021/08/14 03:23:56;;;;;;;2.35;2.25;;;20.20;83.90;;;;;;4959157;28;20182;-74
2021/08/14 03:26:23;;;;;;;2.83;2.65;;;20.20;83.80;;;;;;4960212;28;20601;-73
2021/08/14 03:28:48;;;;;;;3.40;3.10;;;20.20;83.80;;;;;;4960033;28;20186;-73
2021/08/14 03:31:14;;;;;;;3.33;2.85;;;20.10;84.10;;;;;;4958172;28;20237;-73
2021/08/14 03:33:40;;;;;;;2.90;2.20;;;20.10;84.80;;;;;;4959234;28;20186;-73
2021/08/14 03:36:06;;;;;;;2.50;2.30;;;20.10;84.60;;;;;;4958054;28;20186;-73
2021/08/14 03:38:31;;;;;;;2.22;2.13;;;20.00;84.50;;;;;;4953737;28;20217;-73
2021/08/14 03:40:57;;;;;;;3.17;2.33;;;20.00;84.40;;;;;;4958867;28;20206;-73
2021/08/14 03:43:23;;;;;;;2.00;1.92;;;20.00;84.20;;;;;;4957608;28;20189;-74
2021/08/14 03:45:48;;;;;;;1.92;1.85;;;20.00;84.00;;;;;;4961776;28;20182;-73
2021/08/14 03:48:14;;;;;;;3.42;2.20;;;20.00;83.80;;;;;;4955323;28;20269;-73
2021/08/14 03:50:40;;;;;;;2.17;2.08;;;20.00;83.90;;;;;;4958402;28;20179;-73
2021/08/14 03:53:06;;;;;;;2.47;2.38;;;20.00;84.10;;;;;;4956853;28;20835;-73
2021/08/14 03:55:32;;;;;;;2.40;2.30;;;;;;;;;;4954601;28;20183;-73
2021/08/14 03:57:58;;;;;;;2.20;2.20;;;20.00;84.40;;;;;;4958302;28;20381;-74
2021/08/14 04:00:23;;;;;;;1.90;1.90;;;19.90;84.30;;;;;;4960365;28;20281;-73
2021/08/14 04:02:49;;;;;;;1.98;1.88;;;20.00;84.20;;;;;;4958997;28;20198;-72
2021/08/14 04:05:15;;;;;;;2.47;2.38;;;20.00;84.00;;;;;;4957365;28;20191;-73
2021/08/14 04:07:41;;;;;;;2.42;2.33;;;20.00;85.20;;;;;;4960919;28;20320;-73
2021/08/14 04:10:07;;;;;;;3.03;2.80;;;19.90;83.90;;;;;;4959461;28;20194;-72
2021/08/14 04:12:33;;;;;;;3.47;2.38;;;19.90;83.90;;;;;;4957617;28;20202;-73
2021/08/14 04:14:59;;;;;;;2.17;2.08;;;19.90;83.70;;;;;;4958117;28;20579;-73
2021/08/14 04:17:25;;;;;;;2.10;1.90;;;20.00;83.70;;;;;;4960521;28;20214;-73
2021/08/14 04:19:51;;;;;;;1.65;1.65;;;20.00;83.50;;;;;;4959309;28;20661;-74
2021/08/14 04:22:17;;;;;;;2.97;2.30;;;20.00;83.60;;;;;;4959031;28;20186;-73
2021/08/14 04:24:42;;;;;;;2.20;2.10;;;20.00;83.80;;;;;;4959547;28;20577;-73
2021/08/14 04:27:08;;;;;;;2.35;2.22;;;20.00;83.60;;;;;;4961066;28;20823;-73
2021/08/14 04:29:34;;;;;;;1.77;1.70;;;20.00;83.90;;;;;;4959513;28;20194;-72
2021/08/14 04:32:00;;;;;;;2.35;2.25;;;20.10;83.60;;;;;;4959844;28;20183;-72
2021/08/14 04:34:26;;;;;;;2.20;2.00;;;20.10;83.30;;;;;;4955945;28;20183;-72
2021/08/14 04:36:51;;;;;;;3.13;2.10;;;20.10;83.30;;;;;;4957275;28;20178;-73
2021/08/14 04:39:17;;;;;;;2.55;2.28;;;20.10;83.60;;;;;;4956981;28;20215;-75
2021/08/14 04:41:43;;;;;;;2.13;2.03;;;20.20;83.80;;;;;;4959998;28;20265;-76
2021/08/14 04:44:09;;;;;;;4.68;2.20;;;20.20;83.30;;;;;;4954209;28;20186;-76
2021/08/14 04:46:34;;;;;;;2.20;2.10;;;20.20;83.70;;;;;;4956777;28;20189;-72
2021/08/14 04:49:00;;;;;;;2.42;2.33;;;;;;;;;;4957364;28;20195;-72
2021/08/14 04:51:26;;;;;;;2.85;2.65;;;20.30;83.40;;;;;;4979276;28;20248;-71
2021/08/14 04:53:52;;;;;;;2.80;2.60;;;20.30;84.10;;;;;;4958264;28;20190;-72
2021/08/14 04:56:18;;;;;;;2.20;2.10;;;20.30;83.50;;;;;;4959070;28;20751;-72
2021/08/14 04:58:43;;;;;;;2.15;2.15;;;20.40;83.60;;;;;;4956872;28;20220;-72
2021/08/14 05:01:09;;;;;;;2.30;2.20;;;20.40;83.70;;;;;;4959111;28;20265;-73
2021/08/14 05:03:35;;;;;;;2.55;2.45;;;20.50;83.50;;;;;;4956107;28;20194;-72
2021/08/14 05:06:00;;;;;;;2.55;2.45;;;20.50;83.40;;;;;;4955278;28;20652;-74
2021/08/14 05:08:26;;;;;;;4.28;2.38;;;20.50;83.30;;;;;;4961073;28;20191;-74
2021/08/14 05:10:52;;;;;;;2.47;2.38;;;20.60;83.10;;;;;;4959464;28;20191;-73
2021/08/14 05:13:18;;;;;;;2.58;2.47;;;20.60;83.10;;;;;;4955394;28;20269;-74
2021/08/14 05:15:43;;;;;;;2.10;2.10;;;20.60;83.30;;;;;;4956671;28;20187;-73
2021/08/14 05:18:09;;;;;;;3.00;2.78;;;20.70;83.00;;;;;;4955664;28;20733;-73
2021/08/14 05:20:35;;;;;;;2.35;2.28;;;20.70;83.50;;;;;;4956818;28;20287;-73
2021/08/14 05:23:01;;;;;;;2.38;2.28;;;20.80;82.70;;;;;;4958697;28;20190;-72
2021/08/14 05:25:28;;;;;;;2.90;2.70;;;20.80;82.60;;;;;;4959844;28;20687;-72
2021/08/14 05:27:53;;;;;;;3.20;2.50;;;20.90;82.30;;;;;;4962123;28;20190;-72
2021/08/14 05:30:19;;;;;;;6.45;2.60;;;20.90;82.10;;;;;;4959013;28;20870;-72
2021/08/14 05:32:45;;;;;;;3.92;2.60;;;21.00;82.10;;;;;;4961785;28;20246;-72
2021/08/14 05:35:11;;;;;;;3.13;2.92;;;21.00;81.80;;;;;;4960115;28;20269;-72
2021/08/14 05:37:36;;;;;;;2.78;2.67;;;21.10;81.30;;;;;;4977939;28;20237;-72
2021/08/14 05:40:03;;;;;;;5.43;2.88;;;21.20;81.50;;;;;;4961440;28;20190;-72
2021/08/14 05:42:28;;;;;;;3.33;3.22;;;21.20;81.30;;;;;;4961531;28;20206;-72
2021/08/14 05:44:54;;;;;;;2.75;2.55;;;21.30;81.10;;;;;;4964243;28;20203;-71
2021/08/14 05:47:20;;;;;;;2.40;2.30;;;21.30;81.10;;;;;;4961549;28;20684;-72
2021/08/14 05:49:45;;;;;;;3.38;3.22;;;21.40;81.00;;;;;;4962862;28;20210;-71
2021/08/14 05:52:11;;;;;;;3.03;2.92;;;21.40;80.70;;;;;;4961355;28;20186;-75
2021/08/14 05:54:37;;;;;;;3.65;2.78;;;21.50;80.70;;;;;;4963822;28;20785;-76
2021/08/14 05:57:02;;;;;;;2.83;2.72;;;21.50;80.50;;;;;;4959712;28;20266;-74
2021/08/14 05:59:28;;;;;;;3.25;3.10;;;21.60;80.60;;;;;;4959881;28;20759;-75
2021/08/14 06:01:54;;;;;;;3.45;3.25;;;21.60;80.80;;;;;;4962123;28;20197;-75
2021/08/14 06:04:20;;;;;;;3.80;2.92;;;21.60;80.80;;;;;;4959760;28;20214;-75
2021/08/14 06:06:46;;;;;;;2.45;2.25;;;21.70;81.00;;;;;;4960860;28;20209;-74
2021/08/14 06:09:12;;;;;;;3.05;2.95;;;21.70;80.70;;;;;;4960786;28;20187;-73
2021/08/14 06:11:38;;;;;;;3.05;2.95;;;21.80;80.60;;;;;;4963795;28;20190;-73
2021/08/14 06:14:04;;;;;;;2.63;2.53;;;21.90;80.50;;;;;;4958304;28;20183;-75
2021/08/14 06:16:30;;;;;;;3.00;2.90;;;21.90;80.30;;;;;;4956848;28;20654;-74
2021/08/14 06:18:57;;;;;;;3.00;2.85;;;21.90;80.00;;;;;;4962581;28;20226;-74
2021/08/14 06:21:23;;;;;;;3.00;2.90;;;22.00;79.90;;;;;;4958494;28;20191;-74
2021/08/14 06:23:48;;;;;;;4.22;3.42;;;22.00;80.10;;;;;;4959754;28;20192;-72
2021/08/14 06:26:14;;;;;;;3.03;2.92;;;22.00;80.00;;;;;;4960830;28;20190;-71
2021/08/14 06:28:40;;;;;;;2.90;2.80;;;22.10;80.10;;;;;;4955224;28;20194;-72
2021/08/14 06:31:05;;;;;;;4.10;3.10;;;22.10;80.00;;;;;;4957835;28;20187;-72
2021/08/14 06:33:31;;;;;;;3.35;3.13;;;22.20;79.90;;;;;;4955729;28;20187;-74
2021/08/14 06:35:57;;;;;;;3.17;2.97;;;22.30;79.50;;;;;;4961300;28;20190;-74
2021/08/14 06:38:23;;;;;;;3.25;3.03;;;22.30;79.10;;;;;;4960466;28;20226;-74
2021/08/14 06:40:48;;;;;;;2.83;2.63;;;22.40;79.20;;;;;;4959788;28;20265;-73
2021/08/14 06:43:14;;;;;;;3.35;3.15;;;22.40;79.20;;;;;;4961487;28;20186;-76
2021/08/14 06:45:40;;;;;;;3.10;3.00;;;22.50;78.80;;;;;;4959281;28;21779;-74
2021/08/14 06:48:06;;;;;;;2.78;2.67;;;22.50;79.00;;;;;;4959100;28;20209;-74
2021/08/14 06:50:32;;;;;;;2.75;2.65;;;22.60;78.80;;;;;;4958443;28;20218;-74
2021/08/14 06:52:57;;;;;;;2.78;2.70;;;22.60;78.50;;;;;;4958891;28;20186;-73
2021/08/14 06:55:23;;;;;;;3.47;3.20;;;22.70;78.00;;;;;;4958074;28;20197;-72
2021/08/14 06:57:49;;;;;;;4.45;3.55;;;22.80;77.90;;;;;;4959062;28;20225;-73
2021/08/14 07:00:15;;;;;;;3.08;2.97;;;22.80;77.90;;;;;;4957983;28;20182;-72
2021/08/14 07:02:41;;;;;;;3.78;3.17;;;22.90;77.70;;;;;;4958921;28;20710;-73
2021/08/14 07:05:08;;;;;;;3.25;3.13;;;22.90;77.70;;;;;;4959857;28;20197;-72
2021/08/14 07:07:34;;;;;;;3.42;3.20;;;23.00;77.70;;;;;;4959110;28;20263;-72
2021/08/14 07:10:05;;;;;;;2.97;2.83;;;23.10;77.80;;;;;;4960634;28;20189;-72
2021/08/14 07:12:32;;;;;;;3.35;3.05;;;23.10;76.90;;;;;;4958640;28;20191;-72
2021/08/14 07:14:59;;;;;;;2.85;2.75;;;23.10;77.20;;;;;;4959856;28;20217;-72
2021/08/14 07:17:25;;;;;;;3.50;3.25;;;23.20;76.70;;;;;;4960058;28;20235;-72
2021/08/14 07:19:52;;;;;;;3.35;2.95;;;23.20;76.30;;;;;;4960386;28;20222;-72
2021/08/14 07:22:18;;;;;;;3.70;2.95;;;23.20;76.10;;;;;;4956259;28;20178;-72
2021/08/14 07:24:44;;;;;;;2.95;2.75;;;23.30;76.50;;;;;;4957548;28;20735;-72
2021/08/14 07:27:10;;;;;;;3.05;2.95;;;23.30;76.50;;;;;;4958550;28;20186;-73
2021/08/14 07:29:35;;;;;;;2.80;2.70;;;23.40;76.50;;;;;;4952868;28;20206;-72
2021/08/14 07:32:01;;;;;;;3.15;3.05;;;23.40;76.20;;;;;;4957154;28;20221;-72
2021/08/14 07:34:27;;;;;;;2.67;2.67;;;23.50;75.90;;;;;;4955904;28;20996;-72
2021/08/14 07:36:53;;;;;;;4.25;3.75;;;23.60;75.60;;;;;;4955571;28;20661;-72
2021/08/14 07:39:18;;;;;;;3.15;3.05;;;23.70;75.70;;;;;;4950740;28;20704;-72
2021/08/14 07:41:44;;;;;;;3.28;3.08;;;23.70;75.60;;;;;;4951823;28;20190;-72
2021/08/14 07:44:10;;;;;;;3.28;3.13;;;23.80;75.50;;;;;;4958737;28;20191;-72
2021/08/14 07:46:35;;;;;;;2.88;2.78;;;23.90;75.70;;;;;;4959145;28;21184;-70
2021/08/14 07:49:01;;;;;;;3.58;3.38;;;24.00;75.10;;;;;;4953631;28;20197;-72
2021/08/14 07:51:27;;;;;;;4.75;3.08;;;24.00;75.20;;;;;;4955620;28;20179;-73
2021/08/14 07:53:53;;;;;;;3.60;3.30;;;24.10;75.20;;;;;;4952453;28;20186;-73
2021/08/14 07:56:18;;;;;;;3.85;3.17;;;24.20;74.80;;;;;;4959949;28;20187;-73
2021/08/14 07:58:44;;;;;;;3.20;3.00;;;24.30;74.50;;;;;;4957894;28;20301;-73
2021/08/14 08:01:10;;;;;;;3.15;3.05;;;24.40;74.10;;;;;;4957680;28;20186;-72
2021/08/14 08:03:35;;;;;;;3.47;3.33;;;24.40;74.00;;;;;;4959229;28;20183;-72
2021/08/14 08:06:01;;;;;;;3.65;3.22;;;24.50;73.80;;;;;;4951900;28;20585;-72
2021/08/14 08:08:27;;;;;;;3.28;3.13;;;24.60;73.50;;;;;;4953070;28;20310;-72
2021/08/14 08:10:53;;;;;;;3.72;3.33;;;24.70;73.50;;;;;;4954868;28;20196;-73
2021/08/14 08:13:18;;;;;;;3.30;3.10;;;24.80;73.50;;;;;;4953838;28;20194;-74
2021/08/14 08:15:44;;;;;;;3.97;3.00;;;24.90;72.80;;;;;;4955095;28;20182;-74
2021/08/14 08:18:12;;;;;;;3.70;2.92;;;25.00;72.10;;;;;;4953477;28;20297;-73
2021/08/14 08:20:39;;;;;;;3.22;3.05;;;25.10;72.80;;;;;;4958990;28;20194;-73
2021/08/14 08:23:05;;;;;;;2.85;2.75;;;25.20;72.50;;;;;;4969331;28;20600;-74
2021/08/14 08:25:31;;;;;;;2.90;2.78;;;25.30;72.40;;;;;;4956146;28;20187;-74
2021/08/14 08:28:01;;;;;;;2.75;2.65;;;25.50;72.10;;;;;;4958449;28;20190;-74
2021/08/14 08:30:28;;;;;;;3.75;3.17;;;25.60;71.40;;;;;;4953933;28;20653;-74
2021/08/14 08:32:54;;;;;;;3.65;3.38;;;25.70;70.40;;;;;;4955328;28;20183;-74
2021/08/14 08:35:20;;;;;;;3.50;3.30;;;25.80;70.50;;;;;;4955979;28;20182;-73
2021/08/14 08:37:46;;;;;;;4.50;3.10;;;25.90;69.90;;;;;;4956271;28;20261;-76
2021/08/14 08:40:14;;;;;;;3.05;2.95;;;26.00;69.10;;;;;;4953126;28;20191;-74
2021/08/14 08:42:41;;;;;;;3.90;2.40;;;26.00;68.40;;;;;;4954638;28;20193;-75
2021/08/14 08:45:07;;;;;;;2.40;2.28;;;26.20;65.10;;;;;;4954874;28;20221;-76
2021/08/14 08:47:36;;;;;;;3.20;3.00;;;26.20;64.50;;;;;;4958739;28;20283;-72
2021/08/14 08:50:05;;;;;;;3.63;3.13;;;26.30;64.70;;;;;;4953550;28;20190;-74
2021/08/14 08:52:31;;;;;;;3.15;2.95;;;26.40;63.90;;;;;;4959489;28;20232;-75
2021/08/14 08:54:57;;;;;;;4.05;3.95;;;26.40;64.80;;;;;;4961106;28;20229;-74
2021/08/14 08:57:22;;;;;;;4.82;4.07;;;26.50;64.50;;;;;;4954142;28;20211;-74
2021/08/14 08:59:49;;;;;;;4.22;3.95;;;26.60;64.80;;;;;;4955899;28;20699;-76
2021/08/14 09:02:25;;;;;;;4.15;3.92;;;26.70;64.40;;;;;;4955162;28;20190;-77
2021/08/14 09:05:13;;;;;;;4.32;4.13;;;26.80;64.00;;;;;;4954911;28;20665;-76
2021/08/14 09:07:40;;;;;;;3.95;3.75;;;26.90;64.40;;;;;;4955387;28;20315;-74
2021/08/14 09:10:09;;;;;;;4.32;4.13;;;27.10;64.40;;;;;;4954439;28;20187;-73
2021/08/14 09:12:39;;;;;;;4.43;4.22;;;27.30;64.90;;;;;;4952502;28;20234;-75
2021/08/14 09:15:06;;;;;;;4.15;3.85;;;27.50;64.80;;;;;;4955104;28;20187;-74
2021/08/14 09:17:32;;;;;;;4.10;3.78;;;27.70;64.30;;;;;;4954739;28;20217;-74
2021/08/14 09:20:10;;;;;;;4.00;3.80;;;27.90;63.60;;;;;;4957401;28;20183;-75
2021/08/14 09:22:37;;;;;;;4.20;4.00;;;28.20;62.60;;;;;;4952782;28;20185;-75
2021/08/14 09:25:19;;;;;;;4.63;4.43;;;28.40;62.50;;;;;;4957841;28;20222;-75
2021/08/14 09:27:54;;;;;;;4.25;4.05;;;28.60;62.00;;;;;;4955370;28;20224;-75
2021/08/14 09:30:21;;;;;;;4.38;4.28;;;28.90;61.00;;;;;;4955683;28;20667;-75
2021/08/14 09:33:06;;;;;;;4.97;4.72;;;29.20;61.20;;;;;;4955938;28;20544;-75
2021/08/14 09:35:33;;;;;;;4.90;4.70;;;29.60;59.20;;;;;;4952416;28;20875;-75
2021/08/14 09:38:07;;;;;;;4.53;4.30;;;30.20;57.90;;;;;;4950903;28;20218;-75
2021/08/14 09:40:46;;;;;;;4.70;4.50;;;30.80;57.50;;;;;;4953798;28;20273;-75
2021/08/14 09:43:14;;;;;;;4.70;4.50;;;31.40;57.40;;;;;;4957005;28;20734;-75
2021/08/14 09:45:54;;;;;;;4.13;3.88;;;31.90;56.50;;;;;;4955031;28;20600;-75
2021/08/14 09:48:22;;;;;;;4.80;4.60;;;32.30;55.70;;;;;;4958011;28;20190;-75
2021/08/14 09:50:48;;;;;;;4.18;3.90;;;32.80;54.00;;;;;;4957095;28;20242;-75
2021/08/14 09:53:20;;;;;;;5.13;4.78;;;33.30;54.60;;;;;;4951527;28;20654;-75
2021/08/14 09:55:50;;;;;;;4.45;4.35;;;33.70;52.60;;;;;;4957184;28;20261;-75
2021/08/14 09:58:20;;;;;;;5.22;4.93;;;34.30;52.20;;;;;;4956815;28;20341;-75
2021/08/14 10:00:48;;;;;;;4.97;4.57;;;35.00;52.00;;;;;;4955904;28;20190;-75
2021/08/14 10:03:16;;;;;;;4.30;4.10;;;35.80;50.70;;;;;;4959271;28;20189;-71
2021/08/14 10:05:43;;;;;;;5.20;4.93;;;36.30;49.30;;;;;;4957767;28;20191;-75
2021/08/14 10:08:09;;;;;;;4.80;4.60;;;36.40;50.10;;;;;;4957255;28;20190;-75
2021/08/14 10:10:36;;;;;;;4.60;4.40;;;36.30;50.20;;;;;;4962424;28;20208;-75
2021/08/14 10:13:02;;;;;;;5.50;5.10;;;35.70;50.40;;;;;;4958781;28;20213;-75
2021/08/14 10:15:28;;;;;;;4.63;4.47;;;35.70;49.60;;;;;;4958445;28;20182;-74
2021/08/14 10:17:55;;;;;;;5.22;4.97;;;36.00;49.60;;;;;;4954642;28;20782;-74
2021/08/14 10:20:22;;;;;;;4.95;4.65;;;36.60;49.20;;;;;;4957931;28;20562;-73
2021/08/14 10:23:05;;;;;;;4.70;4.53;;;37.30;49.20;;;;;;4957330;28;20257;-73
2021/08/14 10:25:32;;;;;;;5.00;4.78;;;37.20;47.30;;;;;;4955843;28;21701;-74
2021/08/14 10:28:03;;;;;;;4.60;4.47;;;37.30;49.10;;;;;;4961186;28;20198;-75
2021/08/14 10:30:53;;;;;;;5.03;4.82;;;37.30;48.30;;;;;;4960104;28;20321;-73
2021/08/14 10:33:28;;;;;;;4.53;4.28;;;36.90;48.10;;;;;;4955417;28;20706;-76
2021/08/14 10:35:57;;;;;;;5.07;4.65;;;36.90;47.60;;;;;;4949265;28;20193;-75
2021/08/14 10:38:43;;;;;;;4.65;4.45;;;36.90;50.30;;;;;;4952092;28;20253;-75
2021/08/14 10:41:11;;;;;;;4.50;4.32;;;37.20;48.20;;;;;;4955219;28;20186;-74
2021/08/14 10:43:55;;;;;;;5.28;4.88;;;37.70;48.20;;;;;;4949743;28;20273;-77
2021/08/14 10:46:38;;;;;;;5.40;5.18;;;38.40;46.90;;;;;;4949515;28;20218;-77
2021/08/14 10:49:05;;;;;;;5.40;5.10;;;39.00;46.20;;;;;;4952233;28;20217;-78
2021/08/14 10:54:30;;;;;;;4.93;4.72;;;40.40;44.90;;;;;;4952495;28;20229;-77
2021/08/14 10:57:08;;;;;;;5.65;5.35;;;41.20;44.10;;;;;;4957972;28;20682;-76
2021/08/14 10:59:39;;;;;;;5.25;5.05;;;41.90;44.50;;;;;;4957651;28;20209;-76
2021/08/14 11:02:10;;;;;;;4.90;4.70;;;42.20;42.20;;;;;;4950322;28;20214;-76
2021/08/14 11:04:44;;;;;;;4.90;4.70;;;42.50;42.60;;;;;;4950134;28;20194;-78
2021/08/14 11:07:21;;;;;;;4.60;4.40;;;42.80;43.00;;;;;;4950700;28;20325;-78
2021/08/14 11:09:53;;;;;;;4.93;4.68;;;43.10;42.30;;;;;;4954308;28;20832;-78
2021/08/14 11:12:37;;;;;;;4.43;4.32;;;43.60;43.90;;;;;;4959168;28;20178;-79
2021/08/14 11:15:24;;;;;;;5.20;4.90;;;43.60;40.50;;;;;;4959409;28;20199;-77
2021/08/14 11:18:01;;;;;;;4.50;4.30;;;43.00;41.20;;;;;;4956359;28;20210;-78
2021/08/14 11:20:31;;;;;;;4.72;4.57;;;42.70;42.30;;;;;;4956235;28;20216;-78
2021/08/14 11:22:59;;;;;;;4.57;4.47;;;42.50;42.80;;;;;;4959741;28;20217;-78
2021/08/14 11:25:41;;;;;;;4.90;4.65;;;42.30;43.40;;;;;;4957274;28;20290;-76
2021/08/14 11:28:09;;;;;;;4.95;4.65;;;42.20;43.80;;;;;;4957917;28;20186;-78
2021/08/14 11:30:45;;;;;;;4.30;4.18;;;42.40;44.60;;;;;;4955378;28;20190;-75
2021/08/14 11:33:12;;;;;;;4.78;4.57;;;42.80;42.80;;;;;;4958540;28;20231;-79
2021/08/14 11:35:40;;;;;;;5.22;4.93;;;42.80;43.10;;;;;;4955793;28;20194;-79
2021/08/14 11:38:08;;;;;;;4.85;4.43;;;42.70;43.70;;;;;;4954831;28;20218;-77
2021/08/14 11:40:36;;;;;;;4.80;4.60;;;42.60;43.30;;;;;;4958045;28;20228;-78
2021/08/14 11:43:11;;;;;;;4.30;4.10;;;42.60;43.80;;;;;;4957108;28;20290;-77
2021/08/14 11:45:39;;;;;;;4.80;4.70;;;42.70;42.80;;;;;;4956707;28;20181;-74
2021/08/14 11:48:17;;;;;;;4.65;4.30;;;43.10;42.90;;;;;;4956705;28;20206;-74
2021/08/14 11:50:48;;;;;;;4.05;3.95;;;43.60;41.50;;;;;;4956619;28;21405;-74
2021/08/14 11:53:27;;;;;;;4.68;4.50;;;43.20;42.30;;;;;;4955175;28;20261;-74
2021/08/14 11:56:07;;;;;;;4.35;4.10;;;42.30;41.70;;;;;;4957065;28;20197;-74
2021/08/14 11:58:32;;;;;;;4.57;4.38;;;41.40;42.30;;;;;;4958004;28;20299;-73
2021/08/14 12:00:58;;;;;;;4.00;3.83;;;40.60;44.80;;;;;;4956800;28;20648;-73
2021/08/14 12:03:25;;;;;;;4.45;4.25;;;39.60;45.30;;;;;;4956378;28;20700;-76
2021/08/14 12:05:52;;;;;;;4.45;4.35;;;39.10;45.10;;;;;;4957957;28;20182;-75
2021/08/14 12:08:35;;;;;;;4.85;4.65;;;38.80;45.90;;;;;;4955931;28;20191;-75
2021/08/14 12:11:03;;;;;;;4.07;3.97;;;39.30;45.00;;;;;;4954119;28;20707;-75
2021/08/14 12:13:29;;;;;;;4.55;4.30;;;40.10;45.00;;;;;;4959421;28;20182;-74
2021/08/14 12:16:16;;;;;;;4.05;3.80;;;41.00;44.50;;;;;;4957955;28;20557;-75
2021/08/14 12:18:44;;;;;;;3.75;3.65;;;42.00;42.00;;;;;;4957544;28;20863;-76
2021/08/14 12:21:11;;;;;;;3.78;3.63;;;42.80;42.10;;;;;;4952975;28;20180;-76
2021/08/14 12:23:40;;;;;;;4.35;4.15;;;43.00;42.40;;;;;;4955117;28;20182;-75
2021/08/14 12:26:26;;;;;;;3.78;3.58;;;42.40;42.70;;;;;;4956349;28;20182;-76
2021/08/14 12:29:05;;;;;;;3.50;3.40;;;41.60;41.50;;;;;;4956261;28;20256;-75
2021/08/14 12:31:46;;;;;;;3.90;3.45;;;41.40;42.20;;;;;;4958046;28;20178;-75
2021/08/14 12:34:32;;;;;;;3.45;3.35;;;41.70;41.80;;;;;;4957864;28;20200;-76
2021/08/14 12:37:12;;;;;;;3.33;3.22;;;42.00;41.50;;;;;;4957607;28;20181;-75
2021/08/14 12:39:57;;;;;;;3.03;3.03;;;42.40;41.00;;;;;;4956985;28;20242;-75
2021/08/14 12:42:33;;;;;;;2.85;2.75;;;42.90;40.70;;;;;;4957406;28;20248;-76
2021/08/14 12:45:11;;;;;;;4.35;2.97;;;43.30;41.40;;;;;;4957645;28;20193;-76
2021/08/14 12:47:37;;;;;;;3.20;3.05;;;43.60;40.50;;;;;;4955657;28;20185;-76
2021/08/14 12:50:09;;;;;;;2.85;2.75;;;44.20;40.20;;;;;;4957031;28;20656;-76
2021/08/14 12:52:34;;;;;;;2.95;2.75;;;44.60;38.80;;;;;;4955322;28;20546;-77
2021/08/14 12:55:00;;;;;;;2.50;2.50;;;44.40;40.40;;;;;;4954061;28;20253;-77